createdAt,value
2023-03-31T00:01:14.901Z,54.90
2023-03-31T00:03:44.944Z,36.40
2023-03-31T00:06:18.907Z,88.70
2023-03-31T00:08:52.279Z,90.00
2023-03-31T00:11:22.434Z,45.40
2023-03-31T00:13:50.927Z,43.40
2023-03-31T00:16:19.864Z,29.20
2023-03-31T00:18:51.145Z,34.20
2023-03-31T00:21:25.409Z,36.30
2023-03-31T00:23:59.922Z,27.10
2023-03-31T00:26:29.614Z,32.60
2023-03-31T00:28:59.692Z,24.40
2023-03-31T00:31:28.808Z,33.90
2023-03-31T00:33:57.415Z,26.20
2023-03-31T00:36:29.111Z,24.60
2023-03-31T00:39:09.009Z,34.10
2023-03-31T00:41:39.498Z,29.50
2023-03-31T00:44:23.236Z,27.50
2023-03-31T00:47:12.341Z,25.60
2023-03-31T00:49:50.799Z,18.90
2023-03-31T00:52:27.141Z,30.40
2023-03-31T00:54:59.952Z,40.60
2023-03-31T00:57:32.579Z,228.00
2023-03-31T01:00:16.285Z,33.90
2023-03-31T01:02:56.258Z,25.80
2023-03-31T01:05:37.360Z,22.40
2023-03-31T01:08:06.451Z,44.50
2023-03-31T01:10:41.955Z,74.50
2023-03-31T01:13:13.745Z,15.70
2023-03-31T01:15:42.951Z,14.50
2023-03-31T01:18:13.298Z,21.10
2023-03-31T01:20:57.632Z,101.30
2023-03-31T01:23:50.585Z,193.40
2023-03-31T01:26:24.711Z,479.20
2023-03-31T01:29:18.063Z,417.80
2023-03-31T01:32:14.603Z,406.10
2023-03-31T01:34:59.160Z,141.30
2023-03-31T01:38:13.012Z,63.70
2023-03-31T01:41:02.480Z,42.80
2023-03-31T01:43:59.328Z,82.20
2023-03-31T01:46:50.671Z,179.70
2023-03-31T01:49:42.267Z,113.30
2023-03-31T01:52:44.154Z,90.90
2023-03-31T01:55:21.943Z,40.40
2023-03-31T02:00:42.240Z,25.40
2023-03-31T02:03:26.982Z,19.70
2023-03-31T02:06:03.902Z,38.80
2023-03-31T02:08:38.421Z,19.20
2023-03-31T02:11:07.098Z,10.80
2023-03-31T02:13:39.365Z,10.80
2023-03-31T02:16:14.424Z,13.70
2023-03-31T02:18:44.523Z,65.90
2023-03-31T02:21:14.896Z,203.50
2023-03-31T02:23:46.088Z,32.00
2023-03-31T02:26:38.132Z,17.40
2023-03-31T02:29:07.028Z,15.80
2023-03-31T02:31:41.299Z,12.60
2023-03-31T02:34:10.021Z,10.50
2023-03-31T02:36:38.911Z,55.80
2023-03-31T02:39:27.260Z,31.30
2023-03-31T02:41:55.844Z,37.50
2023-03-31T02:44:25.146Z,37.80
2023-03-31T02:46:54.658Z,42.20
2023-03-31T02:49:22.909Z,32.40
2023-03-31T02:52:13.338Z,41.60
2023-03-31T02:55:16.419Z,176.00
2023-03-31T02:57:59.750Z,188.70
2023-03-31T03:00:46.561Z,217.10
2023-03-31T03:03:21.029Z,178.60
2023-03-31T03:06:08.686Z,88.10
2023-03-31T03:09:13.857Z,83.50
2023-03-31T03:12:00.462Z,63.00
2023-03-31T03:14:40.086Z,85.20
2023-03-31T03:17:14.691Z,55.70
2023-03-31T03:19:43.417Z,36.00
2023-03-31T03:22:11.696Z,607.10
2023-03-31T03:24:40.094Z,263.70
2023-03-31T03:27:08.455Z,246.40
2023-03-31T03:29:36.629Z,388.20
2023-03-31T03:32:04.908Z,346.00
2023-03-31T03:34:33.320Z,337.80
2023-03-31T03:37:01.767Z,308.40
2023-03-31T03:39:30.047Z,352.30
2023-03-31T03:41:58.738Z,186.80
2023-03-31T03:44:27.382Z,77.10
2023-03-31T03:46:55.700Z,38.30
2023-03-31T03:49:24.070Z,252.20
2023-03-31T03:51:52.962Z,204.10
2023-03-31T03:54:21.457Z,263.40
2023-03-31T03:56:49.790Z,216.20
2023-03-31T03:59:18.445Z,108.90
2023-03-31T04:01:46.930Z,67.60
2023-03-31T04:04:15.667Z,56.80
2023-03-31T04:06:43.943Z,67.80
2023-03-31T04:09:12.045Z,72.30
2023-03-31T04:11:40.599Z,65.70
2023-03-31T04:14:08.980Z,61.90
2023-03-31T04:16:38.666Z,104.80
2023-03-31T04:19:07.178Z,54.30
2023-03-31T04:21:35.648Z,42.00
2023-03-31T04:24:07.101Z,79.70
2023-03-31T04:26:45.010Z,55.90
2023-03-31T04:29:16.736Z,155.00
2023-03-31T04:31:45.259Z,50.40
2023-03-31T04:34:15.584Z,40.10
2023-03-31T04:36:47.964Z,83.20
2023-03-31T04:39:24.616Z,62.40
2023-03-31T04:41:55.762Z,20.30
2023-03-31T04:44:24.242Z,16.90
2023-03-31T04:46:52.629Z,17.10
2023-03-31T04:49:21.110Z,19.40
2023-03-31T04:51:49.793Z,17.30
2023-03-31T04:54:21.134Z,18.80
2023-03-31T04:56:49.444Z,33.30
2023-03-31T04:59:17.590Z,29.20
2023-03-31T05:01:46.116Z,24.70
2023-03-31T05:04:14.756Z,16.90
2023-03-31T05:06:43.064Z,15.20
2023-03-31T05:09:11.415Z,14.70
2023-03-31T05:11:39.801Z,13.10
2023-03-31T05:14:07.976Z,15.50
2023-03-31T05:16:36.577Z,21.30
2023-03-31T05:19:04.945Z,18.00
2023-03-31T05:21:33.319Z,13.90
2023-03-31T05:24:01.504Z,16.30
2023-03-31T05:26:29.659Z,15.30
2023-03-31T05:28:57.940Z,9.00
2023-03-31T05:31:27.676Z,14.90
2023-03-31T05:33:55.933Z,13.40
2023-03-31T05:36:24.346Z,14.20
2023-03-31T05:38:53.096Z,16.10
2023-03-31T05:41:21.678Z,22.50
2023-03-31T05:43:50.060Z,33.40
2023-03-31T05:46:18.760Z,23.50
2023-03-31T05:48:47.080Z,12.90
2023-03-31T05:51:15.299Z,26.10
2023-03-31T05:53:44.209Z,22.70
2023-03-31T05:56:12.770Z,17.00
2023-03-31T05:58:41.458Z,31.90
2023-03-31T06:01:12.315Z,37.30
2023-03-31T06:03:42.538Z,23.70
2023-03-31T06:06:13.372Z,16.90
2023-03-31T06:08:45.788Z,14.40
2023-03-31T06:11:17.300Z,15.90
2023-03-31T06:13:46.386Z,21.60
2023-03-31T06:16:17.231Z,15.10
2023-03-31T06:18:46.206Z,22.30
2023-03-31T06:21:17.157Z,14.90
2023-03-31T06:23:46.349Z,17.00
2023-03-31T06:26:17.254Z,17.50
2023-03-31T06:28:47.041Z,23.30
2023-03-31T06:31:18.578Z,19.10
2023-03-31T06:33:48.150Z,14.10
2023-03-31T06:36:18.320Z,16.60
2023-03-31T06:38:46.778Z,17.50
2023-03-31T06:41:17.086Z,40.90
2023-03-31T06:43:45.378Z,15.70
2023-03-31T06:46:14.373Z,16.40
2023-03-31T06:48:42.953Z,19.00
2023-03-31T06:51:12.129Z,26.60
2023-03-31T06:53:40.983Z,22.90
2023-03-31T06:56:09.660Z,17.60
2023-03-31T06:58:38.187Z,15.80
2023-03-31T07:01:07.393Z,12.30
2023-03-31T07:03:36.522Z,24.50
2023-03-31T07:06:05.270Z,191.30
2023-03-31T07:08:33.445Z,61.50
2023-03-31T07:11:02.378Z,30.80
2023-03-31T07:13:31.146Z,89.00
2023-03-31T07:15:59.433Z,42.90
2023-03-31T07:18:34.899Z,20.60
2023-03-31T07:21:07.284Z,22.50
2023-03-31T07:23:38.508Z,18.40
2023-03-31T07:26:06.955Z,20.00
2023-03-31T07:28:35.835Z,56.30
2023-03-31T07:31:11.346Z,174.10
2023-03-31T07:33:40.076Z,19.80
2023-03-31T07:36:12.787Z,21.10
2023-03-31T07:38:44.466Z,50.20
2023-03-31T07:41:15.478Z,44.50
2023-03-31T07:43:44.888Z,48.40
2023-03-31T07:46:24.253Z,122.80
2023-03-31T07:48:54.619Z,23.90
2023-03-31T07:51:25.989Z,129.90
2023-03-31T07:53:54.272Z,20.60
2023-03-31T07:56:25.025Z,150.10
2023-03-31T07:58:56.815Z,25.80
2023-03-31T08:01:26.908Z,46.70
2023-03-31T08:03:56.233Z,60.40
2023-03-31T08:06:26.680Z,35.40
2023-03-31T08:08:55.268Z,22.90
2023-03-31T08:11:24.676Z,50.30
2023-03-31T08:13:53.462Z,33.30
2023-03-31T08:16:21.688Z,26.70
2023-03-31T08:18:50.817Z,14.90
2023-03-31T08:21:19.328Z,21.20
2023-03-31T08:23:48.515Z,15.30
2023-03-31T08:26:22.025Z,17.40
2023-03-31T08:28:50.863Z,14.70
2023-03-31T08:31:21.570Z,16.50
2023-03-31T08:33:50.637Z,19.30
2023-03-31T08:36:18.923Z,20.00
2023-03-31T08:38:48.189Z,17.80
2023-03-31T08:41:16.380Z,46.30
2023-03-31T08:43:47.775Z,84.20
2023-03-31T08:46:18.944Z,23.10
2023-03-31T08:48:55.191Z,15.40
2023-03-31T08:51:39.704Z,18.40
2023-03-31T08:54:34.186Z,18.50
2023-03-31T08:57:06.433Z,15.40
2023-03-31T08:59:37.762Z,42.90
2023-03-31T09:02:48.989Z,24.70
2023-03-31T09:05:58.972Z,14.60
2023-03-31T09:08:39.455Z,23.30
2023-03-31T09:11:14.896Z,16.40
2023-03-31T09:14:05.249Z,15.50
2023-03-31T09:16:38.888Z,15.10
2023-03-31T09:19:18.911Z,14.10
2023-03-31T09:21:51.997Z,13.40
2023-03-31T09:24:25.963Z,18.50
2023-03-31T09:27:00.855Z,14.20
2023-03-31T09:29:47.550Z,15.00
2023-03-31T09:32:22.872Z,10.10
2023-03-31T09:34:57.431Z,11.10
2023-03-31T09:37:30.505Z,15.30
2023-03-31T09:40:02.277Z,9.50
2023-03-31T09:42:30.948Z,16.50
2023-03-31T09:44:59.290Z,20.20
2023-03-31T09:47:43.846Z,15.10
2023-03-31T09:50:12.880Z,19.50
2023-03-31T09:52:43.354Z,21.90
2023-03-31T09:55:39.213Z,10.30
2023-03-31T09:58:13.892Z,16.20
2023-03-31T10:00:44.383Z,14.00
2023-03-31T10:03:16.280Z,11.60
2023-03-31T10:05:53.206Z,13.20
2023-03-31T10:08:29.397Z,8.80
2023-03-31T10:11:09.092Z,10.60
2023-03-31T10:13:58.994Z,10.80
2023-03-31T10:16:30.043Z,9.10
2023-03-31T10:19:21.638Z,13.20
2023-03-31T10:22:06.910Z,15.10
2023-03-31T10:24:43.897Z,14.00
2023-03-31T10:27:21.429Z,11.40
2023-03-31T10:29:57.141Z,18.70
2023-03-31T10:32:45.874Z,12.80
2023-03-31T10:35:27.424Z,16.90
2023-03-31T10:38:07.449Z,14.80
2023-03-31T10:40:37.017Z,15.50
2023-03-31T10:43:21.455Z,14.30
2023-03-31T10:45:52.463Z,12.30
2023-03-31T10:48:29.053Z,12.60
2023-03-31T10:51:19.150Z,17.00
2023-03-31T10:53:52.738Z,12.50
2023-03-31T10:56:32.289Z,15.20
2023-03-31T10:59:33.143Z,12.80
2023-03-31T11:02:20.051Z,14.20
2023-03-31T11:05:01.032Z,12.90
2023-03-31T11:07:48.898Z,15.00
2023-03-31T11:10:30.022Z,13.50
2023-03-31T11:13:20.114Z,15.30
2023-03-31T11:15:59.316Z,17.40
2023-03-31T11:18:43.093Z,17.90
2023-03-31T11:21:28.673Z,20.10
2023-03-31T11:24:24.860Z,15.70
2023-03-31T11:27:09.834Z,13.50
2023-03-31T11:29:44.809Z,21.10
2023-03-31T11:32:43.661Z,15.40
2023-03-31T11:35:47.819Z,22.30
2023-03-31T11:38:30.971Z,39.60
2023-03-31T11:41:16.774Z,33.40
2023-03-31T11:43:49.923Z,18.90
2023-03-31T11:46:23.931Z,18.90
2023-03-31T11:49:00.294Z,15.60
2023-03-31T11:51:42.727Z,11.50
2023-03-31T11:54:20.482Z,18.60
2023-03-31T11:56:49.425Z,13.00
2023-03-31T11:59:21.681Z,25.70
2023-03-31T12:02:16.050Z,10.10
2023-03-31T12:04:49.819Z,12.00
2023-03-31T12:07:32.261Z,12.50
2023-03-31T12:10:19.577Z,8.60
2023-03-31T12:13:15.102Z,11.20
2023-03-31T12:15:48.479Z,11.40
2023-03-31T12:18:22.849Z,8.90
2023-03-31T12:20:55.814Z,9.20
2023-03-31T12:23:28.789Z,10.00
2023-03-31T12:26:16.933Z,7.00
2023-03-31T12:28:48.113Z,5.80
2023-03-31T12:31:22.332Z,6.50
2023-03-31T12:34:14.329Z,8.20
2023-03-31T12:37:15.083Z,6.00
2023-03-31T12:39:43.143Z,6.30
2023-03-31T12:42:40.959Z,5.00
2023-03-31T12:45:32.412Z,4.60
2023-03-31T12:48:19.342Z,7.00
2023-03-31T12:51:09.973Z,7.10
2023-03-31T12:53:44.371Z,5.80
2023-03-31T12:56:12.749Z,4.20
2023-03-31T12:58:43.554Z,8.40
2023-03-31T13:01:23.626Z,6.60
2023-03-31T13:03:54.277Z,5.30
2023-03-31T13:06:25.719Z,7.30
2023-03-31T13:08:58.726Z,6.00
2023-03-31T13:11:36.721Z,9.20
2023-03-31T13:14:17.481Z,6.00
2023-03-31T13:16:47.246Z,9.30
2023-03-31T13:19:31.347Z,5.00
2023-03-31T13:22:01.974Z,9.60
2023-03-31T13:24:32.167Z,6.20
2023-03-31T13:27:31.402Z,6.20
2023-03-31T13:29:59.488Z,5.60
2023-03-31T13:32:28.317Z,7.80
2023-03-31T13:35:05.835Z,4.40
2023-03-31T13:37:46.626Z,9.10
2023-03-31T13:40:27.300Z,11.80
2023-03-31T13:43:27.363Z,8.20
2023-03-31T13:46:08.859Z,6.30
2023-03-31T13:48:55.910Z,3.60
2023-03-31T13:51:43.128Z,13.50
2023-03-31T13:54:29.634Z,6.00
2023-03-31T13:57:03.787Z,10.10
2023-03-31T13:59:50.765Z,12.00
2023-03-31T14:02:45.740Z,6.90
2023-03-31T14:05:23.260Z,4.80
2023-03-31T14:08:15.088Z,5.70
2023-03-31T14:10:44.399Z,5.80
2023-03-31T14:13:18.767Z,7.20
2023-03-31T14:15:58.247Z,9.50
2023-03-31T14:18:51.550Z,5.10
2023-03-31T14:21:34.124Z,6.20
2023-03-31T14:24:35.791Z,12.20
2023-03-31T14:27:41.642Z,6.90
2023-03-31T14:30:42.616Z,9.60
2023-03-31T14:33:19.609Z,51.40
2023-03-31T14:36:08.331Z,11.50
2023-03-31T14:38:37.274Z,7.40
2023-03-31T14:41:05.922Z,5.30
2023-03-31T14:43:47.743Z,4.50
2023-03-31T14:46:20.602Z,6.00
2023-03-31T14:48:51.249Z,4.00
2023-03-31T14:51:31.119Z,3.00
2023-03-31T14:54:00.903Z,3.70
2023-03-31T14:56:38.052Z,5.40
2023-03-31T14:59:08.168Z,5.20
2023-03-31T15:01:38.572Z,4.10
2023-03-31T15:04:20.390Z,4.20
2023-03-31T15:06:53.685Z,2.80
2023-03-31T15:09:27.408Z,5.20
2023-03-31T15:12:01.813Z,6.00
2023-03-31T15:14:36.932Z,5.40
2023-03-31T15:17:05.345Z,6.20
2023-03-31T15:19:35.795Z,4.40
2023-03-31T15:22:19.155Z,4.60
2023-03-31T15:24:47.476Z,5.60
2023-03-31T15:27:23.334Z,14.90
2023-03-31T15:29:57.533Z,15.20
2023-03-31T15:32:31.593Z,152.10
2023-03-31T15:37:54.797Z,702.30
2023-03-31T15:40:52.096Z,412.90
2023-03-31T15:44:13.051Z,896.30
2023-03-31T15:46:42.380Z,708.70
2023-03-31T15:49:26.402Z,538.60
2023-03-31T15:51:57.691Z,299.10
2023-03-31T15:54:34.891Z,456.10
2023-03-31T15:57:05.868Z,567.10
2023-03-31T16:02:25.645Z,311.90
2023-03-31T16:04:59.762Z,212.10
2023-03-31T16:07:36.662Z,197.20
2023-03-31T16:10:18.548Z,180.40
2023-03-31T16:12:56.302Z,161.50
2023-03-31T16:15:41.873Z,71.80
2023-03-31T16:18:18.081Z,171.50
2023-03-31T16:20:54.736Z,80.10
2023-03-31T16:23:27.993Z,146.30
2023-03-31T16:25:56.520Z,102.60
2023-03-31T16:28:31.650Z,125.30
2023-03-31T16:31:02.196Z,140.20
2023-03-31T16:33:31.991Z,390.30
2023-03-31T16:36:02.952Z,205.90
2023-03-31T16:38:31.407Z,115.70
2023-03-31T16:41:00.682Z,73.90
2023-03-31T16:43:31.405Z,124.40
2023-03-31T16:46:03.493Z,94.80
2023-03-31T16:48:35.149Z,68.10
2023-03-31T16:51:04.129Z,53.10
2023-03-31T16:53:34.637Z,41.00
2023-03-31T16:56:05.191Z,278.80
2023-03-31T16:58:34.408Z,80.00
2023-03-31T17:01:03.669Z,84.40
2023-03-31T17:03:32.585Z,102.60
2023-03-31T17:06:07.068Z,270.20
2023-03-31T17:08:35.294Z,255.30
2023-03-31T17:11:07.292Z,179.90
2023-03-31T17:13:35.536Z,165.10
2023-03-31T17:18:54.733Z,114.70
2023-03-31T17:21:23.923Z,73.50
2023-03-31T17:23:52.447Z,477.10
2023-03-31T17:26:20.993Z,417.80
2023-03-31T17:28:49.366Z,280.60
2023-03-31T17:31:21.220Z,285.50
2023-03-31T17:33:49.612Z,276.70
2023-03-31T17:36:18.197Z,280.40
2023-03-31T17:38:46.666Z,255.40
2023-03-31T17:41:17.813Z,101.10
2023-03-31T17:43:47.420Z,260.60
2023-03-31T17:46:17.522Z,49.30
2023-03-31T17:48:45.915Z,19.80
2023-03-31T17:51:16.814Z,20.30
2023-03-31T17:53:46.572Z,27.60
2023-03-31T17:56:16.810Z,28.70
2023-03-31T17:58:46.942Z,24.50
2023-03-31T18:01:15.320Z,21.30
2023-03-31T18:03:45.408Z,33.40
2023-03-31T18:06:14.911Z,31.60
2023-03-31T18:08:43.299Z,32.20
2023-03-31T18:11:12.084Z,33.40
2023-03-31T18:13:40.729Z,54.00
2023-03-31T18:16:11.169Z,49.50
2023-03-31T18:18:39.877Z,56.20
2023-03-31T18:21:10.923Z,40.80
2023-03-31T18:23:40.323Z,91.00
2023-03-31T18:26:10.940Z,48.80
2023-03-31T18:28:43.227Z,56.70
2023-03-31T18:31:12.495Z,55.50
2023-03-31T18:33:41.751Z,32.40
2023-03-31T18:36:17.090Z,30.90
2023-03-31T18:38:49.482Z,42.10
2023-03-31T18:41:19.469Z,38.30
2023-03-31T18:43:48.156Z,42.10
2023-03-31T18:46:16.791Z,51.80
2023-03-31T18:48:45.634Z,51.30
2023-03-31T18:51:15.125Z,35.30
2023-03-31T18:53:44.650Z,35.20
2023-03-31T18:56:13.424Z,31.00
2023-03-31T18:58:42.104Z,28.10
2023-03-31T19:01:10.329Z,22.50
2023-03-31T19:03:39.222Z,22.90
2023-03-31T19:06:10.455Z,19.90
2023-03-31T19:08:42.800Z,18.30
2023-03-31T19:11:16.313Z,20.60
2023-03-31T19:13:47.727Z,21.10
2023-03-31T19:16:18.093Z,25.50
2023-03-31T19:18:46.871Z,27.50
2023-03-31T19:21:15.239Z,26.80
2023-03-31T19:23:43.619Z,23.90
2023-03-31T19:26:18.317Z,25.30
2023-03-31T19:28:48.224Z,20.60
2023-03-31T19:31:16.335Z,21.20
2023-03-31T19:33:44.663Z,21.30
2023-03-31T19:36:14.238Z,19.30
2023-03-31T19:38:43.535Z,22.70
2023-03-31T19:41:12.105Z,21.00
2023-03-31T19:43:42.736Z,19.60
2023-03-31T19:46:11.153Z,22.10
2023-03-31T19:48:40.527Z,16.40
2023-03-31T19:51:10.021Z,22.30
2023-03-31T19:53:39.320Z,33.00
2023-03-31T19:56:13.661Z,33.60
2023-03-31T19:58:42.665Z,31.90
2023-03-31T20:01:20.627Z,21.70
2023-03-31T20:03:53.677Z,25.00
2023-03-31T20:06:30.515Z,19.60
2023-03-31T20:09:00.974Z,21.00
2023-03-31T20:11:31.209Z,19.90
2023-03-31T20:14:01.432Z,25.00
2023-03-31T20:16:31.376Z,24.60
2023-03-31T20:19:05.260Z,25.70
2023-03-31T20:21:36.901Z,27.20
2023-03-31T20:24:06.142Z,33.50
2023-03-31T20:26:35.161Z,29.10
2023-03-31T20:29:04.324Z,30.30
2023-03-31T20:31:38.520Z,30.10
2023-03-31T20:34:12.745Z,27.60
2023-03-31T20:36:43.287Z,26.50
2023-03-31T20:39:14.149Z,26.50
2023-03-31T20:41:42.729Z,37.00
2023-03-31T20:44:15.204Z,24.50
2023-03-31T20:46:45.386Z,31.80
2023-03-31T20:49:14.242Z,31.70
2023-03-31T20:51:42.910Z,29.40
2023-03-31T20:54:12.104Z,23.40
2023-03-31T20:56:41.817Z,22.90
2023-03-31T20:59:15.115Z,22.60
2023-03-31T21:01:47.210Z,26.10
2023-03-31T21:04:17.232Z,17.10
2023-03-31T21:06:47.315Z,18.30
2023-03-31T21:09:16.613Z,25.60
2023-03-31T21:11:45.023Z,19.40
2023-03-31T21:14:15.780Z,21.50
2023-03-31T21:16:45.038Z,20.70
2023-03-31T21:19:13.504Z,27.20
2023-03-31T21:21:43.318Z,29.10
2023-03-31T21:24:12.718Z,26.30
2023-03-31T21:26:41.320Z,20.30
2023-03-31T21:29:09.583Z,19.20
2023-03-31T21:31:38.051Z,24.50
2023-03-31T21:34:06.470Z,25.20
2023-03-31T21:36:35.165Z,25.40
2023-03-31T21:39:03.519Z,22.90
2023-03-31T21:41:32.199Z,24.90
2023-03-31T21:44:02.327Z,26.30
2023-03-31T21:46:33.819Z,25.60
2023-03-31T21:49:03.083Z,23.80
2023-03-31T21:51:31.556Z,25.00
2023-03-31T21:54:00.044Z,28.80
2023-03-31T21:56:32.081Z,27.20
2023-03-31T21:59:02.524Z,23.20
2023-03-31T22:01:32.246Z,28.50
2023-03-31T22:04:00.950Z,29.50
2023-03-31T22:06:29.528Z,30.10
2023-03-31T22:08:57.680Z,27.00
2023-03-31T22:11:26.879Z,32.50
2023-03-31T22:13:55.067Z,29.00
2023-03-31T22:16:24.191Z,29.60
2023-03-31T22:18:55.297Z,26.40
2023-03-31T22:21:26.393Z,27.80
2023-03-31T22:23:59.738Z,26.00
2023-03-31T22:26:30.159Z,27.80
2023-03-31T22:28:59.368Z,27.30
2023-03-31T22:31:28.586Z,29.30
2023-03-31T22:33:57.132Z,28.90
2023-03-31T22:36:25.452Z,31.40
2023-03-31T22:38:53.588Z,26.80
2023-03-31T22:41:22.067Z,25.80
2023-03-31T22:43:51.878Z,27.90
2023-03-31T22:46:21.046Z,32.10
2023-03-31T22:48:50.608Z,43.80
2023-03-31T22:51:19.064Z,37.60
2023-03-31T22:53:51.955Z,37.70
2023-03-31T22:56:21.450Z,34.80
2023-03-31T22:58:53.318Z,37.60
2023-03-31T23:01:22.088Z,37.30
2023-03-31T23:03:50.945Z,34.90
2023-03-31T23:06:19.381Z,44.20
2023-03-31T23:08:49.130Z,44.30
2023-03-31T23:11:18.994Z,39.40
2023-03-31T23:13:47.717Z,36.30
2023-03-31T23:16:20.120Z,41.00
2023-03-31T23:18:48.951Z,42.90
2023-03-31T23:21:21.801Z,36.70
2023-03-31T23:23:53.767Z,36.70
2023-03-31T23:26:24.357Z,39.80
2023-03-31T23:28:54.463Z,43.10
2023-03-31T23:31:28.536Z,47.60
2023-03-31T23:33:58.379Z,42.80
2023-03-31T23:36:27.365Z,43.80
2023-03-31T23:38:56.773Z,52.10
2023-03-31T23:41:26.598Z,40.00
2023-03-31T23:43:56.494Z,49.40
2023-03-31T23:46:26.212Z,45.80
2023-03-31T23:48:54.686Z,45.80
2023-03-31T23:51:23.640Z,44.90
2023-03-31T23:53:52.496Z,44.40
2023-03-31T23:56:21.151Z,44.40
2023-03-31T23:58:49.330Z,49.10
